sensor_id;sensor_type;location;lat;lon;timestamp;P1;durP1;ratioP1;P2;durP2;ratioP2
70975;SDS011;58635;51.198;6.010;2023-07-13T00:01:45;5.18;;;1.40;;
70975;SDS011;58635;51.198;6.010;2023-07-13T00:04:19;5.78;;;1.23;;
70975;SDS011;58635;51.198;6.010;2023-07-13T00:06:46;9.00;;;1.55;;
70975;SDS011;58635;51.198;6.010;2023-07-13T00:09:14;5.47;;;1.30;;
70975;SDS011;58635;51.198;6.010;2023-07-13T00:11:41;6.18;;;1.48;;
70975;SDS011;58635;51.198;6.010;2023-07-13T00:14:09;4.70;;;1.20;;
70975;SDS011;58635;51.198;6.010;2023-07-13T00:16:37;3.75;;;1.30;;
70975;SDS011;58635;51.198;6.010;2023-07-13T00:19:05;5.45;;;1.30;;
70975;SDS011;58635;51.198;6.010;2023-07-13T00:21:32;5.07;;;1.48;;
70975;SDS011;58635;51.198;6.010;2023-07-13T00:23:59;4.97;;;1.42;;
70975;SDS011;58635;51.198;6.010;2023-07-13T00:26:27;5.32;;;1.40;;
70975;SDS011;58635;51.198;6.010;2023-07-13T00:28:53;4.45;;;1.20;;
70975;SDS011;58635;51.198;6.010;2023-07-13T00:31:20;7.40;;;1.55;;
70975;SDS011;58635;51.198;6.010;2023-07-13T00:33:46;4.20;;;1.13;;
70975;SDS011;58635;51.198;6.010;2023-07-13T00:36:12;5.05;;;1.10;;
70975;SDS011;58635;51.198;6.010;2023-07-13T00:38:39;3.67;;;1.13;;
70975;SDS011;58635;51.198;6.010;2023-07-13T00:41:06;4.07;;;1.30;;
70975;SDS011;58635;51.198;6.010;2023-07-13T00:43:32;3.25;;;1.10;;
70975;SDS011;58635;51.198;6.010;2023-07-13T00:48:27;6.82;;;1.45;;
70975;SDS011;58635;51.198;6.010;2023-07-13T00:50:57;6.00;;;1.63;;
70975;SDS011;58635;51.198;6.010;2023-07-13T00:53:27;5.10;;;1.42;;
70975;SDS011;58635;51.198;6.010;2023-07-13T00:55:57;4.70;;;1.40;;
70975;SDS011;58635;51.198;6.010;2023-07-13T00:58:26;6.28;;;1.40;;
70975;SDS011;58635;51.198;6.010;2023-07-13T01:00:53;4.32;;;1.30;;
70975;SDS011;58635;51.198;6.010;2023-07-13T01:03:20;6.60;;;1.45;;
70975;SDS011;58635;51.198;6.010;2023-07-13T01:05:47;6.05;;;1.30;;
70975;SDS011;58635;51.198;6.010;2023-07-13T01:08:15;6.40;;;1.50;;
70975;SDS011;58635;51.198;6.010;2023-07-13T01:11:03;5.50;;;1.33;;
70975;SDS011;58635;51.198;6.010;2023-07-13T01:13:29;5.03;;;1.40;;
70975;SDS011;58635;51.198;6.010;2023-07-13T01:15:55;4.97;;;1.42;;
70975;SDS011;58635;51.198;6.010;2023-07-13T01:18:25;4.20;;;1.75;;
70975;SDS011;58635;51.198;6.010;2023-07-13T01:23:23;4.90;;;1.20;;
70975;SDS011;58635;51.198;6.010;2023-07-13T01:25:51;6.15;;;1.50;;
70975;SDS011;58635;51.198;6.010;2023-07-13T01:28:19;3.40;;;1.42;;
70975;SDS011;58635;51.198;6.010;2023-07-13T01:30:46;4.28;;;1.20;;
70975;SDS011;58635;51.198;6.010;2023-07-13T01:33:13;4.55;;;1.27;;
70975;SDS011;58635;51.198;6.010;2023-07-13T01:35:43;7.15;;;1.58;;
70975;SDS011;58635;51.198;6.010;2023-07-13T01:38:11;4.25;;;1.40;;
70975;SDS011;58635;51.198;6.010;2023-07-13T01:40:43;7.13;;;1.67;;
70975;SDS011;58635;51.198;6.010;2023-07-13T01:43:09;5.82;;;1.52;;
70975;SDS011;58635;51.198;6.010;2023-07-13T01:45:36;3.47;;;1.17;;
70975;SDS011;58635;51.198;6.010;2023-07-13T01:48:03;4.88;;;1.52;;
70975;SDS011;58635;51.198;6.010;2023-07-13T01:50:29;6.15;;;1.80;;
70975;SDS011;58635;51.198;6.010;2023-07-13T01:52:56;5.40;;;1.50;;
70975;SDS011;58635;51.198;6.010;2023-07-13T01:55:22;9.68;;;1.58;;
70975;SDS011;58635;51.198;6.010;2023-07-13T01:57:49;8.60;;;1.42;;
70975;SDS011;58635;51.198;6.010;2023-07-13T02:00:16;5.28;;;1.40;;
70975;SDS011;58635;51.198;6.010;2023-07-13T02:02:43;6.00;;;1.58;;
70975;SDS011;58635;51.198;6.010;2023-07-13T02:05:10;6.45;;;1.60;;
70975;SDS011;58635;51.198;6.010;2023-07-13T02:07:38;10.02;;;1.70;;
70975;SDS011;58635;51.198;6.010;2023-07-13T02:10:05;5.40;;;1.50;;
70975;SDS011;58635;51.198;6.010;2023-07-13T02:12:33;5.68;;;1.20;;
70975;SDS011;58635;51.198;6.010;2023-07-13T02:15:00;6.88;;;1.60;;
70975;SDS011;58635;51.198;6.010;2023-07-13T02:17:27;5.28;;;1.50;;
70975;SDS011;58635;51.198;6.010;2023-07-13T02:19:54;8.27;;;1.45;;
70975;SDS011;58635;51.198;6.010;2023-07-13T02:22:21;6.88;;;1.30;;
70975;SDS011;58635;51.198;6.010;2023-07-13T02:24:48;6.57;;;1.67;;
70975;SDS011;58635;51.198;6.010;2023-07-13T02:27:15;7.10;;;1.58;;
70975;SDS011;58635;51.198;6.010;2023-07-13T02:29:42;6.22;;;1.30;;
70975;SDS011;58635;51.198;6.010;2023-07-13T02:32:08;4.22;;;1.40;;
70975;SDS011;58635;51.198;6.010;2023-07-13T02:34:35;6.15;;;1.42;;
70975;SDS011;58635;51.198;6.010;2023-07-13T02:37:02;5.68;;;1.60;;
70975;SDS011;58635;51.198;6.010;2023-07-13T02:39:28;5.38;;;1.48;;
70975;SDS011;58635;51.198;6.010;2023-07-13T02:41:55;6.82;;;1.50;;
70975;SDS011;58635;51.198;6.010;2023-07-13T02:44:21;4.10;;;1.50;;
70975;SDS011;58635;51.198;6.010;2023-07-13T02:46:47;5.22;;;1.60;;
70975;SDS011;58635;51.198;6.010;2023-07-13T02:49:14;5.65;;;1.63;;
70975;SDS011;58635;51.198;6.010;2023-07-13T02:51:40;8.55;;;1.50;;
70975;SDS011;58635;51.198;6.010;2023-07-13T02:54:07;4.97;;;1.60;;
70975;SDS011;58635;51.198;6.010;2023-07-13T02:56:34;9.18;;;1.80;;
70975;SDS011;58635;51.198;6.010;2023-07-13T02:59:01;8.98;;;1.70;;
70975;SDS011;58635;51.198;6.010;2023-07-13T03:01:28;7.70;;;1.67;;
70975;SDS011;58635;51.198;6.010;2023-07-13T03:03:55;6.03;;;1.73;;
70975;SDS011;58635;51.198;6.010;2023-07-13T03:06:21;7.43;;;1.63;;
70975;SDS011;58635;51.198;6.010;2023-07-13T03:08:48;6.25;;;1.70;;
70975;SDS011;58635;51.198;6.010;2023-07-13T03:11:16;8.20;;;2.05;;
70975;SDS011;58635;51.198;6.010;2023-07-13T03:13:44;4.15;;;1.50;;
70975;SDS011;58635;51.198;6.010;2023-07-13T03:16:12;9.85;;;2.22;;
70975;SDS011;58635;51.198;6.010;2023-07-13T03:18:42;8.15;;;1.73;;
70975;SDS011;58635;51.198;6.010;2023-07-13T03:21:08;5.57;;;1.88;;
70975;SDS011;58635;51.198;6.010;2023-07-13T03:23:35;5.47;;;1.63;;
70975;SDS011;58635;51.198;6.010;2023-07-13T03:28:33;5.63;;;1.58;;
70975;SDS011;58635;51.198;6.010;2023-07-13T03:31:00;6.38;;;1.67;;
70975;SDS011;58635;51.198;6.010;2023-07-13T03:33:28;7.00;;;1.30;;
70975;SDS011;58635;51.198;6.010;2023-07-13T03:35:54;6.78;;;1.80;;
70975;SDS011;58635;51.198;6.010;2023-07-13T03:38:21;8.85;;;1.98;;
70975;SDS011;58635;51.198;6.010;2023-07-13T03:40:48;6.18;;;1.55;;
70975;SDS011;58635;51.198;6.010;2023-07-13T03:43:15;7.60;;;1.77;;
70975;SDS011;58635;51.198;6.010;2023-07-13T03:45:41;7.53;;;1.50;;
70975;SDS011;58635;51.198;6.010;2023-07-13T03:48:07;5.35;;;1.75;;
70975;SDS011;58635;51.198;6.010;2023-07-13T03:50:34;7.45;;;2.00;;
70975;SDS011;58635;51.198;6.010;2023-07-13T03:53:00;11.82;;;1.75;;
70975;SDS011;58635;51.198;6.010;2023-07-13T03:55:27;6.05;;;1.75;;
70975;SDS011;58635;51.198;6.010;2023-07-13T03:57:54;4.80;;;1.73;;
70975;SDS011;58635;51.198;6.010;2023-07-13T04:00:24;6.68;;;1.77;;
70975;SDS011;58635;51.198;6.010;2023-07-13T04:02:51;5.55;;;1.80;;
70975;SDS011;58635;51.198;6.010;2023-07-13T04:05:17;5.22;;;1.90;;
70975;SDS011;58635;51.198;6.010;2023-07-13T04:07:44;7.68;;;2.08;;
70975;SDS011;58635;51.198;6.010;2023-07-13T04:10:11;7.35;;;1.85;;
70975;SDS011;58635;51.198;6.010;2023-07-13T04:12:37;7.57;;;1.70;;
70975;SDS011;58635;51.198;6.010;2023-07-13T04:15:04;7.13;;;1.88;;
70975;SDS011;58635;51.198;6.010;2023-07-13T04:17:31;7.45;;;1.85;;
70975;SDS011;58635;51.198;6.010;2023-07-13T04:19:57;6.25;;;1.90;;
70975;SDS011;58635;51.198;6.010;2023-07-13T04:22:24;6.68;;;2.00;;
70975;SDS011;58635;51.198;6.010;2023-07-13T04:24:50;7.30;;;1.92;;
70975;SDS011;58635;51.198;6.010;2023-07-13T04:27:17;7.00;;;1.85;;
70975;SDS011;58635;51.198;6.010;2023-07-13T04:29:43;6.00;;;1.88;;
70975;SDS011;58635;51.198;6.010;2023-07-13T04:32:10;6.65;;;1.70;;
70975;SDS011;58635;51.198;6.010;2023-07-13T04:34:36;9.25;;;2.00;;
70975;SDS011;58635;51.198;6.010;2023-07-13T04:37:02;8.65;;;2.00;;
70975;SDS011;58635;51.198;6.010;2023-07-13T04:39:30;6.72;;;1.77;;
70975;SDS011;58635;51.198;6.010;2023-07-13T04:41:57;6.55;;;2.00;;
70975;SDS011;58635;51.198;6.010;2023-07-13T04:44:23;6.93;;;1.83;;
70975;SDS011;58635;51.198;6.010;2023-07-13T04:46:49;7.13;;;1.92;;
70975;SDS011;58635;51.198;6.010;2023-07-13T04:49:16;6.05;;;2.13;;
70975;SDS011;58635;51.198;6.010;2023-07-13T04:51:42;7.60;;;2.17;;
70975;SDS011;58635;51.198;6.010;2023-07-13T04:54:09;5.65;;;2.03;;
70975;SDS011;58635;51.198;6.010;2023-07-13T04:56:35;6.68;;;2.08;;
70975;SDS011;58635;51.198;6.010;2023-07-13T04:59:01;8.68;;;2.05;;
70975;SDS011;58635;51.198;6.010;2023-07-13T05:01:28;7.70;;;1.98;;
70975;SDS011;58635;51.198;6.010;2023-07-13T05:03:54;6.50;;;2.03;;
70975;SDS011;58635;51.198;6.010;2023-07-13T05:06:23;7.75;;;1.98;;
70975;SDS011;58635;51.198;6.010;2023-07-13T05:08:50;10.25;;;2.03;;
70975;SDS011;58635;51.198;6.010;2023-07-13T05:11:17;5.93;;;2.17;;
70975;SDS011;58635;51.198;6.010;2023-07-13T05:13:44;7.00;;;2.10;;
70975;SDS011;58635;51.198;6.010;2023-07-13T05:16:10;8.93;;;2.28;;
70975;SDS011;58635;51.198;6.010;2023-07-13T05:18:37;7.97;;;2.00;;
70975;SDS011;58635;51.198;6.010;2023-07-13T05:21:07;7.93;;;2.53;;
70975;SDS011;58635;51.198;6.010;2023-07-13T05:23:35;10.52;;;2.47;;
70975;SDS011;58635;51.198;6.010;2023-07-13T05:26:03;7.57;;;2.80;;
70975;SDS011;58635;51.198;6.010;2023-07-13T05:28:30;9.68;;;2.58;;
70975;SDS011;58635;51.198;6.010;2023-07-13T05:30:58;9.07;;;2.63;;
70975;SDS011;58635;51.198;6.010;2023-07-13T05:33:24;11.40;;;2.95;;
70975;SDS011;58635;51.198;6.010;2023-07-13T05:35:52;7.15;;;2.88;;
70975;SDS011;58635;51.198;6.010;2023-07-13T05:38:18;9.25;;;2.60;;
70975;SDS011;58635;51.198;6.010;2023-07-13T05:40:45;7.43;;;2.65;;
70975;SDS011;58635;51.198;6.010;2023-07-13T05:43:12;12.43;;;3.47;;
70975;SDS011;58635;51.198;6.010;2023-07-13T05:45:39;7.28;;;2.50;;
70975;SDS011;58635;51.198;6.010;2023-07-13T05:48:06;9.10;;;2.50;;
70975;SDS011;58635;51.198;6.010;2023-07-13T05:50:32;8.77;;;2.40;;
70975;SDS011;58635;51.198;6.010;2023-07-13T05:52:59;9.93;;;2.75;;
70975;SDS011;58635;51.198;6.010;2023-07-13T05:55:25;7.05;;;2.35;;
70975;SDS011;58635;51.198;6.010;2023-07-13T05:57:51;6.95;;;2.40;;
70975;SDS011;58635;51.198;6.010;2023-07-13T06:00:18;6.88;;;2.45;;
70975;SDS011;58635;51.198;6.010;2023-07-13T06:02:45;9.00;;;2.88;;
70975;SDS011;58635;51.198;6.010;2023-07-13T06:05:11;8.48;;;2.58;;
70975;SDS011;58635;51.198;6.010;2023-07-13T06:07:38;8.55;;;3.03;;
70975;SDS011;58635;51.198;6.010;2023-07-13T06:10:04;11.55;;;2.60;;
70975;SDS011;58635;51.198;6.010;2023-07-13T06:12:31;7.03;;;2.50;;
70975;SDS011;58635;51.198;6.010;2023-07-13T06:14:58;9.80;;;2.63;;
70975;SDS011;58635;51.198;6.010;2023-07-13T06:17:24;9.07;;;2.50;;
70975;SDS011;58635;51.198;6.010;2023-07-13T06:19:50;10.43;;;2.72;;
70975;SDS011;58635;51.198;6.010;2023-07-13T06:22:17;8.95;;;2.70;;
70975;SDS011;58635;51.198;6.010;2023-07-13T06:24:43;8.95;;;2.97;;
70975;SDS011;58635;51.198;6.010;2023-07-13T06:27:10;8.50;;;2.83;;
70975;SDS011;58635;51.198;6.010;2023-07-13T06:29:36;10.60;;;2.88;;
70975;SDS011;58635;51.198;6.010;2023-07-13T06:32:03;12.52;;;2.67;;
70975;SDS011;58635;51.198;6.010;2023-07-13T06:34:30;10.85;;;2.65;;
70975;SDS011;58635;51.198;6.010;2023-07-13T06:36:56;12.43;;;2.90;;
70975;SDS011;58635;51.198;6.010;2023-07-13T06:39:22;11.10;;;2.88;;
70975;SDS011;58635;51.198;6.010;2023-07-13T06:41:49;10.82;;;2.47;;
70975;SDS011;58635;51.198;6.010;2023-07-13T06:44:15;9.52;;;2.50;;
70975;SDS011;58635;51.198;6.010;2023-07-13T06:46:42;8.75;;;2.50;;
70975;SDS011;58635;51.198;6.010;2023-07-13T06:49:09;8.20;;;2.40;;
70975;SDS011;58635;51.198;6.010;2023-07-13T06:51:35;7.97;;;2.60;;
70975;SDS011;58635;51.198;6.010;2023-07-13T06:54:02;8.82;;;2.58;;
70975;SDS011;58635;51.198;6.010;2023-07-13T06:56:29;8.10;;;2.47;;
70975;SDS011;58635;51.198;6.010;2023-07-13T06:58:55;8.88;;;2.65;;
70975;SDS011;58635;51.198;6.010;2023-07-13T07:01:22;9.13;;;2.97;;
70975;SDS011;58635;51.198;6.010;2023-07-13T07:03:48;11.15;;;2.80;;
70975;SDS011;58635;51.198;6.010;2023-07-13T07:06:19;7.97;;;2.70;;
70975;SDS011;58635;51.198;6.010;2023-07-13T07:08:51;8.38;;;3.28;;
70975;SDS011;58635;51.198;6.010;2023-07-13T07:11:20;8.75;;;2.67;;
70975;SDS011;58635;51.198;6.010;2023-07-13T07:13:49;9.18;;;3.25;;
70975;SDS011;58635;51.198;6.010;2023-07-13T07:16:16;9.77;;;3.35;;
70975;SDS011;58635;51.198;6.010;2023-07-13T07:18:44;8.02;;;3.05;;
70975;SDS011;58635;51.198;6.010;2023-07-13T07:21:11;9.57;;;2.70;;
70975;SDS011;58635;51.198;6.010;2023-07-13T07:23:37;10.15;;;3.08;;
70975;SDS011;58635;51.198;6.010;2023-07-13T07:26:04;9.60;;;2.97;;
70975;SDS011;58635;51.198;6.010;2023-07-13T07:28:31;10.18;;;2.97;;
70975;SDS011;58635;51.198;6.010;2023-07-13T07:30:57;9.05;;;2.97;;
70975;SDS011;58635;51.198;6.010;2023-07-13T07:33:24;8.15;;;2.92;;
70975;SDS011;58635;51.198;6.010;2023-07-13T07:35:51;11.48;;;3.08;;
70975;SDS011;58635;51.198;6.010;2023-07-13T07:38:18;11.55;;;3.05;;
70975;SDS011;58635;51.198;6.010;2023-07-13T07:40:44;9.40;;;3.03;;
70975;SDS011;58635;51.198;6.010;2023-07-13T07:43:11;11.77;;;3.17;;
70975;SDS011;58635;51.198;6.010;2023-07-13T07:45:39;9.35;;;3.00;;
70975;SDS011;58635;51.198;6.010;2023-07-13T07:48:06;10.00;;;3.22;;
70975;SDS011;58635;51.198;6.010;2023-07-13T07:50:33;11.00;;;3.13;;
70975;SDS011;58635;51.198;6.010;2023-07-13T07:53:00;11.40;;;3.20;;
70975;SDS011;58635;51.198;6.010;2023-07-13T07:55:28;11.68;;;3.10;;
70975;SDS011;58635;51.198;6.010;2023-07-13T07:57:56;9.50;;;3.15;;
70975;SDS011;58635;51.198;6.010;2023-07-13T08:00:23;11.15;;;2.95;;
70975;SDS011;58635;51.198;6.010;2023-07-13T08:02:49;9.27;;;2.75;;
70975;SDS011;58635;51.198;6.010;2023-07-13T08:05:16;8.85;;;3.00;;
70975;SDS011;58635;51.198;6.010;2023-07-13T08:07:43;11.65;;;2.90;;
70975;SDS011;58635;51.198;6.010;2023-07-13T08:10:10;9.63;;;2.95;;
70975;SDS011;58635;51.198;6.010;2023-07-13T08:12:50;11.00;;;3.25;;
70975;SDS011;58635;51.198;6.010;2023-07-13T08:15:17;10.13;;;3.08;;
70975;SDS011;58635;51.198;6.010;2023-07-13T08:17:43;12.07;;;2.83;;
70975;SDS011;58635;51.198;6.010;2023-07-13T08:20:10;8.63;;;2.65;;
70975;SDS011;58635;51.198;6.010;2023-07-13T08:22:36;12.20;;;2.90;;
70975;SDS011;58635;51.198;6.010;2023-07-13T08:25:03;14.07;;;3.25;;
70975;SDS011;58635;51.198;6.010;2023-07-13T08:27:29;10.43;;;2.75;;
70975;SDS011;58635;51.198;6.010;2023-07-13T08:29:56;13.20;;;2.78;;
70975;SDS011;58635;51.198;6.010;2023-07-13T08:32:23;8.25;;;2.67;;
70975;SDS011;58635;51.198;6.010;2023-07-13T08:34:50;9.32;;;2.60;;
70975;SDS011;58635;51.198;6.010;2023-07-13T08:37:17;10.77;;;3.08;;
70975;SDS011;58635;51.198;6.010;2023-07-13T08:39:44;9.85;;;3.03;;
70975;SDS011;58635;51.198;6.010;2023-07-13T08:42:16;8.45;;;2.65;;
70975;SDS011;58635;51.198;6.010;2023-07-13T08:47:37;11.98;;;2.58;;
70975;SDS011;58635;51.198;6.010;2023-07-13T08:50:12;8.80;;;3.03;;
70975;SDS011;58635;51.198;6.010;2023-07-13T08:52:42;11.57;;;3.00;;
70975;SDS011;58635;51.198;6.010;2023-07-13T08:57:42;8.18;;;2.42;;
70975;SDS011;58635;51.198;6.010;2023-07-13T09:00:12;10.30;;;2.95;;
70975;SDS011;58635;51.198;6.010;2023-07-13T09:02:45;11.00;;;2.80;;
70975;SDS011;58635;51.198;6.010;2023-07-13T09:05:14;8.70;;;2.80;;
70975;SDS011;58635;51.198;6.010;2023-07-13T09:10:37;6.97;;;2.60;;
70975;SDS011;58635;51.198;6.010;2023-07-13T09:15:46;8.98;;;2.40;;
70975;SDS011;58635;51.198;6.010;2023-07-13T09:18:28;11.48;;;2.67;;
70975;SDS011;58635;51.198;6.010;2023-07-13T09:21:12;6.75;;;2.63;;
70975;SDS011;58635;51.198;6.010;2023-07-13T09:23:42;9.15;;;2.63;;
70975;SDS011;58635;51.198;6.010;2023-07-13T09:28:47;9.45;;;2.45;;
70975;SDS011;58635;51.198;6.010;2023-07-13T09:31:18;7.15;;;2.05;;
70975;SDS011;58635;51.198;6.010;2023-07-13T09:34:12;6.32;;;2.08;;
70975;SDS011;58635;51.198;6.010;2023-07-13T09:36:39;7.93;;;2.67;;
70975;SDS011;58635;51.198;6.010;2023-07-13T09:41:39;5.53;;;2.03;;
70975;SDS011;58635;51.198;6.010;2023-07-13T09:44:15;7.28;;;2.22;;
70975;SDS011;58635;51.198;6.010;2023-07-13T09:46:44;8.77;;;2.67;;
70975;SDS011;58635;51.198;6.010;2023-07-13T09:49:12;9.80;;;2.65;;
70975;SDS011;58635;51.198;6.010;2023-07-13T09:51:42;7.95;;;2.50;;
70975;SDS011;58635;51.198;6.010;2023-07-13T09:54:20;10.95;;;2.50;;
70975;SDS011;58635;51.198;6.010;2023-07-13T09:56:47;8.00;;;2.38;;
70975;SDS011;58635;51.198;6.010;2023-07-13T09:59:23;8.38;;;2.20;;
70975;SDS011;58635;51.198;6.010;2023-07-13T10:01:53;7.88;;;2.22;;
70975;SDS011;58635;51.198;6.010;2023-07-13T10:04:22;7.93;;;2.15;;
70975;SDS011;58635;51.198;6.010;2023-07-13T10:07:04;8.50;;;2.20;;
70975;SDS011;58635;51.198;6.010;2023-07-13T10:09:32;9.05;;;2.33;;
70975;SDS011;58635;51.198;6.010;2023-07-13T10:11:59;7.60;;;1.92;;
70975;SDS011;58635;51.198;6.010;2023-07-13T10:14:25;5.18;;;1.70;;
70975;SDS011;58635;51.198;6.010;2023-07-13T10:16:55;6.50;;;1.80;;
70975;SDS011;58635;51.198;6.010;2023-07-13T10:19:27;7.75;;;2.10;;
70975;SDS011;58635;51.198;6.010;2023-07-13T10:22:00;6.88;;;1.85;;
70975;SDS011;58635;51.198;6.010;2023-07-13T10:24:47;7.03;;;2.10;;
70975;SDS011;58635;51.198;6.010;2023-07-13T10:27:28;5.68;;;2.10;;
70975;SDS011;58635;51.198;6.010;2023-07-13T10:30:04;8.70;;;2.40;;
70975;SDS011;58635;51.198;6.010;2023-07-13T10:32:38;7.15;;;2.28;;
70975;SDS011;58635;51.198;6.010;2023-07-13T10:35:05;6.07;;;1.88;;
70975;SDS011;58635;51.198;6.010;2023-07-13T10:37:55;9.80;;;2.08;;
70975;SDS011;58635;51.198;6.010;2023-07-13T10:40:29;5.43;;;1.83;;
70975;SDS011;58635;51.198;6.010;2023-07-13T10:43:01;7.68;;;2.03;;
70975;SDS011;58635;51.198;6.010;2023-07-13T10:45:35;8.13;;;1.83;;
70975;SDS011;58635;51.198;6.010;2023-07-13T10:48:03;6.32;;;1.85;;
70975;SDS011;58635;51.198;6.010;2023-07-13T10:50:31;6.15;;;2.00;;
70975;SDS011;58635;51.198;6.010;2023-07-13T10:53:03;6.93;;;1.67;;
70975;SDS011;58635;51.198;6.010;2023-07-13T10:56:04;5.07;;;2.10;;
70975;SDS011;58635;51.198;6.010;2023-07-13T10:58:35;4.80;;;1.77;;
70975;SDS011;58635;51.198;6.010;2023-07-13T11:04:08;4.30;;;1.67;;
70975;SDS011;58635;51.198;6.010;2023-07-13T11:09:07;4.35;;;1.42;;
70975;SDS011;58635;51.198;6.010;2023-07-13T11:12:07;6.20;;;1.70;;
70975;SDS011;58635;51.198;6.010;2023-07-13T11:30:38;6.97;;;1.92;;
70975;SDS011;58635;51.198;6.010;2023-07-13T11:33:17;6.07;;;1.73;;
70975;SDS011;58635;51.198;6.010;2023-07-13T11:38:33;4.88;;;1.60;;
70975;SDS011;58635;51.198;6.010;2023-07-13T11:41:06;5.90;;;1.88;;
70975;SDS011;58635;51.198;6.010;2023-07-13T11:43:40;5.00;;;1.50;;
70975;SDS011;58635;51.198;6.010;2023-07-13T11:46:14;4.88;;;1.48;;
70975;SDS011;58635;51.198;6.010;2023-07-13T11:48:48;5.07;;;1.50;;
70975;SDS011;58635;51.198;6.010;2023-07-13T11:51:18;4.15;;;1.42;;
70975;SDS011;58635;51.198;6.010;2023-07-13T11:53:48;4.03;;;1.50;;
70975;SDS011;58635;51.198;6.010;2023-07-13T11:56:17;4.68;;;1.50;;
70975;SDS011;58635;51.198;6.010;2023-07-13T11:58:44;6.57;;;1.70;;
70975;SDS011;58635;51.198;6.010;2023-07-13T12:01:19;4.05;;;1.55;;
70975;SDS011;58635;51.198;6.010;2023-07-13T12:03:48;5.28;;;1.60;;
70975;SDS011;58635;51.198;6.010;2023-07-13T12:06:21;5.28;;;1.60;;
70975;SDS011;58635;51.198;6.010;2023-07-13T12:08:59;5.43;;;1.92;;
70975;SDS011;58635;51.198;6.010;2023-07-13T12:11:27;4.65;;;1.42;;
70975;SDS011;58635;51.198;6.010;2023-07-13T12:13:53;3.50;;;1.15;;
70975;SDS011;58635;51.198;6.010;2023-07-13T12:16:28;4.93;;;1.50;;
70975;SDS011;58635;51.198;6.010;2023-07-13T12:18:59;4.72;;;1.40;;
70975;SDS011;58635;51.198;6.010;2023-07-13T12:21:31;2.88;;;1.30;;
70975;SDS011;58635;51.198;6.010;2023-07-13T12:26:29;3.05;;;1.20;;
70975;SDS011;58635;51.198;6.010;2023-07-13T12:28:58;4.70;;;1.50;;
70975;SDS011;58635;51.198;6.010;2023-07-13T12:31:31;6.78;;;1.42;;
70975;SDS011;58635;51.198;6.010;2023-07-13T12:34:06;6.32;;;1.70;;
70975;SDS011;58635;51.198;6.010;2023-07-13T12:36:35;5.47;;;1.48;;
70975;SDS011;58635;51.198;6.010;2023-07-13T12:39:25;5.55;;;1.77;;
70975;SDS011;58635;51.198;6.010;2023-07-13T12:41:54;4.60;;;1.33;;
70975;SDS011;58635;51.198;6.010;2023-07-13T13:01:32;7.82;;;1.80;;
70975;SDS011;58635;51.198;6.010;2023-07-13T13:04:03;7.07;;;1.90;;
70975;SDS011;58635;51.198;6.010;2023-07-13T13:06:34;5.10;;;1.63;;
70975;SDS011;58635;51.198;6.010;2023-07-13T13:09:02;5.93;;;1.50;;
70975;SDS011;58635;51.198;6.010;2023-07-13T13:11:31;4.90;;;1.33;;
70975;SDS011;58635;51.198;6.010;2023-07-13T13:13:58;4.63;;;1.50;;
70975;SDS011;58635;51.198;6.010;2023-07-13T13:16:31;6.82;;;1.50;;
70975;SDS011;58635;51.198;6.010;2023-07-13T13:19:13;4.05;;;1.65;;
70975;SDS011;58635;51.198;6.010;2023-07-13T13:21:48;4.57;;;1.42;;
70975;SDS011;58635;51.198;6.010;2023-07-13T13:24:17;4.32;;;1.63;;
70975;SDS011;58635;51.198;6.010;2023-07-13T13:26:46;5.70;;;1.55;;
70975;SDS011;58635;51.198;6.010;2023-07-13T13:29:15;4.28;;;1.55;;
70975;SDS011;58635;51.198;6.010;2023-07-13T13:31:43;4.65;;;1.67;;
70975;SDS011;58635;51.198;6.010;2023-07-13T13:34:11;6.40;;;1.60;;
70975;SDS011;58635;51.198;6.010;2023-07-13T13:36:40;4.57;;;1.65;;
70975;SDS011;58635;51.198;6.010;2023-07-13T13:39:21;4.85;;;1.63;;
70975;SDS011;58635;51.198;6.010;2023-07-13T13:42:00;4.80;;;1.90;;
70975;SDS011;58635;51.198;6.010;2023-07-13T13:44:29;6.15;;;1.77;;
70975;SDS011;58635;51.198;6.010;2023-07-13T13:46:56;5.60;;;1.65;;
70975;SDS011;58635;51.198;6.010;2023-07-13T13:49:26;4.88;;;1.73;;
70975;SDS011;58635;51.198;6.010;2023-07-13T13:51:53;6.10;;;1.88;;
70975;SDS011;58635;51.198;6.010;2023-07-13T13:54:21;5.00;;;1.55;;
70975;SDS011;58635;51.198;6.010;2023-07-13T13:56:50;4.05;;;1.48;;
70975;SDS011;58635;51.198;6.010;2023-07-13T13:59:18;5.22;;;1.50;;
70975;SDS011;58635;51.198;6.010;2023-07-13T14:01:46;4.10;;;1.65;;
70975;SDS011;58635;51.198;6.010;2023-07-13T14:04:20;4.90;;;1.50;;
70975;SDS011;58635;51.198;6.010;2023-07-13T14:06:48;4.80;;;1.70;;
70975;SDS011;58635;51.198;6.010;2023-07-13T14:09:15;6.47;;;1.85;;
70975;SDS011;58635;51.198;6.010;2023-07-13T14:11:43;5.47;;;1.92;;
70975;SDS011;58635;51.198;6.010;2023-07-13T14:14:20;5.47;;;1.80;;
70975;SDS011;58635;51.198;6.010;2023-07-13T14:16:49;4.80;;;1.70;;
70975;SDS011;58635;51.198;6.010;2023-07-13T14:19:21;4.95;;;1.65;;
70975;SDS011;58635;51.198;6.010;2023-07-13T14:21:47;7.35;;;1.80;;
70975;SDS011;58635;51.198;6.010;2023-07-13T14:24:15;7.50;;;1.92;;
70975;SDS011;58635;51.198;6.010;2023-07-13T14:26:41;4.90;;;2.28;;
70975;SDS011;58635;51.198;6.010;2023-07-13T14:29:13;6.53;;;2.05;;
70975;SDS011;58635;51.198;6.010;2023-07-13T14:31:42;4.50;;;1.98;;
70975;SDS011;58635;51.198;6.010;2023-07-13T14:34:10;5.53;;;2.08;;
70975;SDS011;58635;51.198;6.010;2023-07-13T14:36:58;6.07;;;1.95;;
70975;SDS011;58635;51.198;6.010;2023-07-13T14:39:24;5.40;;;1.90;;
70975;SDS011;58635;51.198;6.010;2023-07-13T14:41:52;5.95;;;1.65;;
70975;SDS011;58635;51.198;6.010;2023-07-13T14:44:23;3.83;;;1.30;;
70975;SDS011;58635;51.198;6.010;2023-07-13T14:46:52;3.67;;;1.52;;
70975;SDS011;58635;51.198;6.010;2023-07-13T14:52:10;4.15;;;1.90;;
70975;SDS011;58635;51.198;6.010;2023-07-13T14:54:37;2.70;;;1.45;;
70975;SDS011;58635;51.198;6.010;2023-07-13T14:57:11;3.35;;;1.60;;
70975;SDS011;58635;51.198;6.010;2023-07-13T14:59:38;3.25;;;1.50;;
70975;SDS011;58635;51.198;6.010;2023-07-13T15:02:15;4.53;;;1.50;;
70975;SDS011;58635;51.198;6.010;2023-07-13T15:04:44;4.05;;;1.60;;
70975;SDS011;58635;51.198;6.010;2023-07-13T15:07:11;3.67;;;1.45;;
70975;SDS011;58635;51.198;6.010;2023-07-13T15:09:39;4.03;;;1.40;;
70975;SDS011;58635;51.198;6.010;2023-07-13T15:12:05;4.40;;;1.50;;
70975;SDS011;58635;51.198;6.010;2023-07-13T15:14:32;3.13;;;1.40;;
70975;SDS011;58635;51.198;6.010;2023-07-13T15:16:59;4.25;;;1.70;;
70975;SDS011;58635;51.198;6.010;2023-07-13T15:19:26;3.83;;;1.55;;
70975;SDS011;58635;51.198;6.010;2023-07-13T15:21:53;4.47;;;1.73;;
70975;SDS011;58635;51.198;6.010;2023-07-13T15:24:23;4.10;;;1.67;;
70975;SDS011;58635;51.198;6.010;2023-07-13T15:26:50;3.55;;;1.60;;
70975;SDS011;58635;51.198;6.010;2023-07-13T15:29:17;5.75;;;1.80;;
70975;SDS011;58635;51.198;6.010;2023-07-13T15:31:43;4.35;;;1.60;;
70975;SDS011;58635;51.198;6.010;2023-07-13T15:34:11;3.70;;;1.48;;
70975;SDS011;58635;51.198;6.010;2023-07-13T15:36:39;3.72;;;1.60;;
70975;SDS011;58635;51.198;6.010;2023-07-13T15:39:06;3.03;;;1.50;;
70975;SDS011;58635;51.198;6.010;2023-07-13T15:41:32;3.58;;;1.48;;
70975;SDS011;58635;51.198;6.010;2023-07-13T15:44:00;4.97;;;1.73;;
70975;SDS011;58635;51.198;6.010;2023-07-13T15:46:31;3.15;;;1.70;;
70975;SDS011;58635;51.198;6.010;2023-07-13T15:48:57;4.13;;;1.80;;
70975;SDS011;58635;51.198;6.010;2023-07-13T15:51:28;4.28;;;1.67;;
70975;SDS011;58635;51.198;6.010;2023-07-13T15:53:58;4.07;;;1.60;;
70975;SDS011;58635;51.198;6.010;2023-07-13T15:56:31;4.43;;;1.60;;
70975;SDS011;58635;51.198;6.010;2023-07-13T15:59:01;3.88;;;1.60;;
70975;SDS011;58635;51.198;6.010;2023-07-13T16:01:29;3.28;;;1.40;;
70975;SDS011;58635;51.198;6.010;2023-07-13T16:03:57;5.88;;;1.48;;
70975;SDS011;58635;51.198;6.010;2023-07-13T16:06:34;4.43;;;1.73;;